sensor_id;sensor_type;location;lat;lon;timestamp;temperature;humidity
9984;DHT22;16737;50.932;6.780;2024-03-02T00:01:37;10.60;87.10
9984;DHT22;16737;50.932;6.780;2024-03-02T00:04:04;10.60;87.10
9984;DHT22;16737;50.932;6.780;2024-03-02T00:06:33;10.60;87.20
9984;DHT22;16737;50.932;6.780;2024-03-02T00:09:00;10.60;87.30
9984;DHT22;16737;50.932;6.780;2024-03-02T00:11:27;10.60;87.30
9984;DHT22;16737;50.932;6.780;2024-03-02T00:13:54;10.60;87.40
9984;DHT22;16737;50.932;6.780;2024-03-02T00:16:22;10.60;87.40
9984;DHT22;16737;50.932;6.780;2024-03-02T00:18:50;10.60;87.50
9984;DHT22;16737;50.932;6.780;2024-03-02T00:21:17;10.50;87.40
9984;DHT22;16737;50.932;6.780;2024-03-02T00:23:48;10.50;87.30
9984;DHT22;16737;50.932;6.780;2024-03-02T00:26:17;10.50;87.50
9984;DHT22;16737;50.932;6.780;2024-03-02T00:28:44;10.50;87.50
9984;DHT22;16737;50.932;6.780;2024-03-02T00:31:12;10.50;87.60
9984;DHT22;16737;50.932;6.780;2024-03-02T00:33:43;10.50;87.70
9984;DHT22;16737;50.932;6.780;2024-03-02T00:36:12;10.50;87.90
9984;DHT22;16737;50.932;6.780;2024-03-02T00:38:44;10.50;87.80
9984;DHT22;16737;50.932;6.780;2024-03-02T00:41:17;10.40;87.90
9984;DHT22;16737;50.932;6.780;2024-03-02T00:43:57;10.50;88.10
9984;DHT22;16737;50.932;6.780;2024-03-02T00:46:26;10.50;88.20
9984;DHT22;16737;50.932;6.780;2024-03-02T00:48:58;10.50;88.00
9984;DHT22;16737;50.932;6.780;2024-03-02T00:51:27;10.50;88.20
9984;DHT22;16737;50.932;6.780;2024-03-02T00:53:59;10.50;88.00
9984;DHT22;16737;50.932;6.780;2024-03-02T00:56:29;10.50;88.20
9984;DHT22;16737;50.932;6.780;2024-03-02T00:58:57;10.60;88.10
9984;DHT22;16737;50.932;6.780;2024-03-02T01:01:24;10.50;88.00
9984;DHT22;16737;50.932;6.780;2024-03-02T01:03:51;10.60;88.10
9984;DHT22;16737;50.932;6.780;2024-03-02T01:06:20;10.50;88.00
9984;DHT22;16737;50.932;6.780;2024-03-02T01:08:47;10.50;88.10
9984;DHT22;16737;50.932;6.780;2024-03-02T01:11:16;10.50;88.00
9984;DHT22;16737;50.932;6.780;2024-03-02T01:13:44;10.50;88.10
9984;DHT22;16737;50.932;6.780;2024-03-02T01:16:11;10.50;88.10
9984;DHT22;16737;50.932;6.780;2024-03-02T01:18:38;10.50;88.10
9984;DHT22;16737;50.932;6.780;2024-03-02T01:21:05;10.50;88.10
9984;DHT22;16737;50.932;6.780;2024-03-02T01:23:34;10.50;88.20
9984;DHT22;16737;50.932;6.780;2024-03-02T01:26:01;10.50;88.20
9984;DHT22;16737;50.932;6.780;2024-03-02T01:28:28;10.50;88.30
9984;DHT22;16737;50.932;6.780;2024-03-02T01:30:55;10.50;88.30
9984;DHT22;16737;50.932;6.780;2024-03-02T01:33:22;10.50;88.30
9984;DHT22;16737;50.932;6.780;2024-03-02T01:35:49;10.50;88.30
9984;DHT22;16737;50.932;6.780;2024-03-02T01:38:16;10.50;88.30
9984;DHT22;16737;50.932;6.780;2024-03-02T01:40:44;10.60;88.40
9984;DHT22;16737;50.932;6.780;2024-03-02T01:43:11;10.60;88.50
9984;DHT22;16737;50.932;6.780;2024-03-02T01:45:38;10.60;88.50
9984;DHT22;16737;50.932;6.780;2024-03-02T01:48:07;10.60;88.50
9984;DHT22;16737;50.932;6.780;2024-03-02T01:50:34;10.60;88.50
9984;DHT22;16737;50.932;6.780;2024-03-02T01:53:03;10.60;88.50
9984;DHT22;16737;50.932;6.780;2024-03-02T01:55:30;10.70;88.50
9984;DHT22;16737;50.932;6.780;2024-03-02T01:58:00;10.60;88.30
9984;DHT22;16737;50.932;6.780;2024-03-02T02:00:27;10.70;88.40
9984;DHT22;16737;50.932;6.780;2024-03-02T02:02:55;10.70;88.30
9984;DHT22;16737;50.932;6.780;2024-03-02T02:05:23;10.70;88.20
9984;DHT22;16737;50.932;6.780;2024-03-02T02:07:50;10.70;88.20
9984;DHT22;16737;50.932;6.780;2024-03-02T02:10:17;10.70;88.20
9984;DHT22;16737;50.932;6.780;2024-03-02T02:12:44;10.70;88.20
9984;DHT22;16737;50.932;6.780;2024-03-02T02:15:29;10.70;88.40
9984;DHT22;16737;50.932;6.780;2024-03-02T02:17:58;10.70;88.50
9984;DHT22;16737;50.932;6.780;2024-03-02T02:20:25;10.80;88.40
9984;DHT22;16737;50.932;6.780;2024-03-02T02:22:56;10.80;88.40
9984;DHT22;16737;50.932;6.780;2024-03-02T02:25:23;10.80;88.50
9984;DHT22;16737;50.932;6.780;2024-03-02T02:27:50;10.90;88.50
9984;DHT22;16737;50.932;6.780;2024-03-02T02:30:19;10.90;88.50
9984;DHT22;16737;50.932;6.780;2024-03-02T02:32:47;10.90;88.40
9984;DHT22;16737;50.932;6.780;2024-03-02T02:35:14;11.00;88.50
9984;DHT22;16737;50.932;6.780;2024-03-02T02:37:42;11.00;88.40
9984;DHT22;16737;50.932;6.780;2024-03-02T02:40:12;11.00;88.30
9984;DHT22;16737;50.932;6.780;2024-03-02T02:42:39;11.10;88.50
9984;DHT22;16737;50.932;6.780;2024-03-02T02:45:07;11.10;88.40
9984;DHT22;16737;50.932;6.780;2024-03-02T02:47:34;11.20;88.40
9984;DHT22;16737;50.932;6.780;2024-03-02T02:50:02;11.10;88.20
9984;DHT22;16737;50.932;6.780;2024-03-02T02:52:33;11.20;88.20
9984;DHT22;16737;50.932;6.780;2024-03-02T02:55:03;11.20;88.20
9984;DHT22;16737;50.932;6.780;2024-03-02T02:57:33;11.20;88.20
9984;DHT22;16737;50.932;6.780;2024-03-02T03:00:04;11.30;88.30
9984;DHT22;16737;50.932;6.780;2024-03-02T03:02:36;11.30;88.30
9984;DHT22;16737;50.932;6.780;2024-03-02T03:05:05;11.30;88.20
9984;DHT22;16737;50.932;6.780;2024-03-02T03:07:33;11.20;88.10
9984;DHT22;16737;50.932;6.780;2024-03-02T03:09:59;11.30;88.10
9984;DHT22;16737;50.932;6.780;2024-03-02T03:12:26;11.30;88.00
9984;DHT22;16737;50.932;6.780;2024-03-02T03:14:55;11.30;88.00
9984;DHT22;16737;50.932;6.780;2024-03-02T03:17:22;11.30;88.00
9984;DHT22;16737;50.932;6.780;2024-03-02T03:19:50;11.30;88.00
9984;DHT22;16737;50.932;6.780;2024-03-02T03:22:17;11.30;88.10
9984;DHT22;16737;50.932;6.780;2024-03-02T03:24:44;11.30;88.20
9984;DHT22;16737;50.932;6.780;2024-03-02T03:27:11;11.30;88.10
9984;DHT22;16737;50.932;6.780;2024-03-02T03:29:38;11.40;88.90
9984;DHT22;16737;50.932;6.780;2024-03-02T03:32:07;11.40;88.20
9984;DHT22;16737;50.932;6.780;2024-03-02T03:34:34;11.40;88.20
9984;DHT22;16737;50.932;6.780;2024-03-02T03:37:02;11.40;88.10
9984;DHT22;16737;50.932;6.780;2024-03-02T03:39:29;11.50;88.20
9984;DHT22;16737;50.932;6.780;2024-03-02T03:41:56;11.50;88.10
9984;DHT22;16737;50.932;6.780;2024-03-02T03:44:23;11.50;88.10
9984;DHT22;16737;50.932;6.780;2024-03-02T03:46:50;11.50;88.10
9984;DHT22;16737;50.932;6.780;2024-03-02T03:49:18;11.50;88.10
9984;DHT22;16737;50.932;6.780;2024-03-02T03:51:45;11.50;88.10
9984;DHT22;16737;50.932;6.780;2024-03-02T03:54:12;11.50;88.10
9984;DHT22;16737;50.932;6.780;2024-03-02T03:56:39;11.50;88.10
9984;DHT22;16737;50.932;6.780;2024-03-02T03:59:06;11.50;88.00
9984;DHT22;16737;50.932;6.780;2024-03-02T04:01:33;11.40;87.90
9984;DHT22;16737;50.932;6.780;2024-03-02T04:04:00;11.50;88.00
9984;DHT22;16737;50.932;6.780;2024-03-02T04:06:30;11.40;87.80
9984;DHT22;16737;50.932;6.780;2024-03-02T04:08:57;11.40;87.90
9984;DHT22;16737;50.932;6.780;2024-03-02T04:11:24;11.40;87.80
9984;DHT22;16737;50.932;6.780;2024-03-02T04:13:51;11.40;87.80
9984;DHT22;16737;50.932;6.780;2024-03-02T04:16:18;11.40;87.80
9984;DHT22;16737;50.932;6.780;2024-03-02T04:18:45;11.30;87.70
9984;DHT22;16737;50.932;6.780;2024-03-02T04:21:12;11.30;87.60
9984;DHT22;16737;50.932;6.780;2024-03-02T04:23:41;11.30;87.60
9984;DHT22;16737;50.932;6.780;2024-03-02T04:26:07;11.20;87.50
9984;DHT22;16737;50.932;6.780;2024-03-02T04:28:34;11.20;87.50
9984;DHT22;16737;50.932;6.780;2024-03-02T04:31:01;11.20;87.60
9984;DHT22;16737;50.932;6.780;2024-03-02T04:33:28;11.20;87.70
9984;DHT22;16737;50.932;6.780;2024-03-02T04:35:55;11.10;87.80
9984;DHT22;16737;50.932;6.780;2024-03-02T04:38:23;11.10;87.80
9984;DHT22;16737;50.932;6.780;2024-03-02T04:40:51;11.10;87.90
9984;DHT22;16737;50.932;6.780;2024-03-02T04:43:18;11.10;88.00
9984;DHT22;16737;50.932;6.780;2024-03-02T04:45:45;11.10;88.00
9984;DHT22;16737;50.932;6.780;2024-03-02T04:48:12;11.10;88.10
9984;DHT22;16737;50.932;6.780;2024-03-02T04:50:40;11.10;88.10
9984;DHT22;16737;50.932;6.780;2024-03-02T04:53:07;11.00;88.00
9984;DHT22;16737;50.932;6.780;2024-03-02T04:55:34;11.00;88.10
9984;DHT22;16737;50.932;6.780;2024-03-02T04:58:46;11.10;88.20
9984;DHT22;16737;50.932;6.780;2024-03-02T05:01:13;11.00;88.10
9984;DHT22;16737;50.932;6.780;2024-03-02T05:03:42;11.00;88.00
9984;DHT22;16737;50.932;6.780;2024-03-02T05:06:09;11.00;88.20
9984;DHT22;16737;50.932;6.780;2024-03-02T05:08:36;11.00;88.20
9984;DHT22;16737;50.932;6.780;2024-03-02T05:11:03;11.00;88.20
9984;DHT22;16737;50.932;6.780;2024-03-02T05:13:45;11.00;88.30
9984;DHT22;16737;50.932;6.780;2024-03-02T05:16:12;11.00;88.40
9984;DHT22;16737;50.932;6.780;2024-03-02T05:18:39;11.00;88.40
9984;DHT22;16737;50.932;6.780;2024-03-02T05:21:06;11.00;88.40
9984;DHT22;16737;50.932;6.780;2024-03-02T05:23:33;11.00;88.40
9984;DHT22;16737;50.932;6.780;2024-03-02T05:26:00;11.00;88.40
9984;DHT22;16737;50.932;6.780;2024-03-02T05:28:28;11.00;88.40
9984;DHT22;16737;50.932;6.780;2024-03-02T05:30:56;11.00;88.40
9984;DHT22;16737;50.932;6.780;2024-03-02T05:33:23;11.00;88.40
9984;DHT22;16737;50.932;6.780;2024-03-02T05:35:50;11.00;88.40
9984;DHT22;16737;50.932;6.780;2024-03-02T05:38:17;11.00;88.40
9984;DHT22;16737;50.932;6.780;2024-03-02T05:40:44;11.10;88.50
9984;DHT22;16737;50.932;6.780;2024-03-02T05:43:11;11.10;88.50
9984;DHT22;16737;50.932;6.780;2024-03-02T05:45:39;11.10;88.50
9984;DHT22;16737;50.932;6.780;2024-03-02T05:48:08;11.00;88.40
9984;DHT22;16737;50.932;6.780;2024-03-02T05:50:35;11.00;88.30
9984;DHT22;16737;50.932;6.780;2024-03-02T05:53:02;11.00;88.20
9984;DHT22;16737;50.932;6.780;2024-03-02T05:55:30;11.00;88.20
9984;DHT22;16737;50.932;6.780;2024-03-02T05:57:57;11.00;88.20
9984;DHT22;16737;50.932;6.780;2024-03-02T06:00:41;11.00;88.20
9984;DHT22;16737;50.932;6.780;2024-03-02T06:03:09;11.00;88.30
9984;DHT22;16737;50.932;6.780;2024-03-02T06:05:36;11.00;88.40
9984;DHT22;16737;50.932;6.780;2024-03-02T06:08:03;11.00;88.40
9984;DHT22;16737;50.932;6.780;2024-03-02T06:10:31;11.00;88.40
9984;DHT22;16737;50.932;6.780;2024-03-02T06:12:58;11.00;88.50
9984;DHT22;16737;50.932;6.780;2024-03-02T06:15:25;11.00;88.30
9984;DHT22;16737;50.932;6.780;2024-03-02T06:17:55;10.90;88.30
9984;DHT22;16737;50.932;6.780;2024-03-02T06:20:23;10.80;88.10
9984;DHT22;16737;50.932;6.780;2024-03-02T06:22:52;10.70;87.90
9984;DHT22;16737;50.932;6.780;2024-03-02T06:25:19;10.70;88.00
9984;DHT22;16737;50.932;6.780;2024-03-02T06:27:46;10.60;88.10
9984;DHT22;16737;50.932;6.780;2024-03-02T06:30:13;10.50;88.10
9984;DHT22;16737;50.932;6.780;2024-03-02T06:32:40;10.50;88.30
9984;DHT22;16737;50.932;6.780;2024-03-02T06:35:08;10.50;88.60
9984;DHT22;16737;50.932;6.780;2024-03-02T06:37:38;10.40;88.90
9984;DHT22;16737;50.932;6.780;2024-03-02T06:40:06;10.50;89.30
9984;DHT22;16737;50.932;6.780;2024-03-02T06:42:34;10.50;89.40
9984;DHT22;16737;50.932;6.780;2024-03-02T06:45:02;10.50;89.60
9984;DHT22;16737;50.932;6.780;2024-03-02T06:47:29;10.50;89.60
9984;DHT22;16737;50.932;6.780;2024-03-02T06:49:56;10.60;89.60
9984;DHT22;16737;50.932;6.780;2024-03-02T06:52:24;10.60;89.70
9984;DHT22;16737;50.932;6.780;2024-03-02T06:54:52;10.70;89.80
9984;DHT22;16737;50.932;6.780;2024-03-02T06:57:19;10.70;89.70
9984;DHT22;16737;50.932;6.780;2024-03-02T06:59:47;10.70;89.40
9984;DHT22;16737;50.932;6.780;2024-03-02T07:02:15;10.70;89.20
9984;DHT22;16737;50.932;6.780;2024-03-02T07:04:42;10.70;89.10
9984;DHT22;16737;50.932;6.780;2024-03-02T07:07:11;10.60;88.90
9984;DHT22;16737;50.932;6.780;2024-03-02T07:09:38;10.50;88.90
9984;DHT22;16737;50.932;6.780;2024-03-02T07:12:07;10.50;89.00
9984;DHT22;16737;50.932;6.780;2024-03-02T07:14:34;10.50;89.30
9984;DHT22;16737;50.932;6.780;2024-03-02T07:17:19;10.40;89.40
9984;DHT22;16737;50.932;6.780;2024-03-02T07:19:46;10.40;89.60
9984;DHT22;16737;50.932;6.780;2024-03-02T07:22:13;10.40;89.90
9984;DHT22;16737;50.932;6.780;2024-03-02T07:24:40;10.50;90.10
9984;DHT22;16737;50.932;6.780;2024-03-02T07:27:10;10.50;90.10
9984;DHT22;16737;50.932;6.780;2024-03-02T07:29:38;10.50;90.20
9984;DHT22;16737;50.932;6.780;2024-03-02T07:32:06;10.50;90.20
9984;DHT22;16737;50.932;6.780;2024-03-02T07:34:34;10.50;90.30
9984;DHT22;16737;50.932;6.780;2024-03-02T07:37:02;10.60;90.40
9984;DHT22;16737;50.932;6.780;2024-03-02T07:39:29;10.70;90.40
9984;DHT22;16737;50.932;6.780;2024-03-02T07:41:56;10.70;90.40
9984;DHT22;16737;50.932;6.780;2024-03-02T07:44:25;10.70;90.40
9984;DHT22;16737;50.932;6.780;2024-03-02T07:46:52;10.70;90.40
9984;DHT22;16737;50.932;6.780;2024-03-02T07:49:20;10.80;90.50
9984;DHT22;16737;50.932;6.780;2024-03-02T07:51:47;10.80;90.50
9984;DHT22;16737;50.932;6.780;2024-03-02T07:54:14;10.80;90.40
9984;DHT22;16737;50.932;6.780;2024-03-02T07:56:41;10.90;90.50
9984;DHT22;16737;50.932;6.780;2024-03-02T07:59:08;11.00;90.60
9984;DHT22;16737;50.932;6.780;2024-03-02T08:01:37;11.00;90.60
9984;DHT22;16737;50.932;6.780;2024-03-02T08:04:04;11.10;90.70
9984;DHT22;16737;50.932;6.780;2024-03-02T08:06:31;11.20;90.80
9984;DHT22;16737;50.932;6.780;2024-03-02T08:08:59;11.30;90.80
9984;DHT22;16737;50.932;6.780;2024-03-02T08:11:27;11.40;90.90
9984;DHT22;16737;50.932;6.780;2024-03-02T08:13:55;11.50;91.00
9984;DHT22;16737;50.932;6.780;2024-03-02T08:16:23;11.60;90.90
9984;DHT22;16737;50.932;6.780;2024-03-02T08:18:52;11.80;90.90
9984;DHT22;16737;50.932;6.780;2024-03-02T08:21:22;11.90;90.80
9984;DHT22;16737;50.932;6.780;2024-03-02T08:23:49;12.00;90.70
9984;DHT22;16737;50.932;6.780;2024-03-02T08:26:17;12.10;90.70
9984;DHT22;16737;50.932;6.780;2024-03-02T08:28:44;12.20;90.70
9984;DHT22;16737;50.932;6.780;2024-03-02T08:31:11;12.30;90.70
9984;DHT22;16737;50.932;6.780;2024-03-02T08:33:38;12.30;90.60
9984;DHT22;16737;50.932;6.780;2024-03-02T08:36:08;12.40;90.50
9984;DHT22;16737;50.932;6.780;2024-03-02T08:38:35;12.50;90.40
9984;DHT22;16737;50.932;6.780;2024-03-02T08:41:02;12.50;90.30
9984;DHT22;16737;50.932;6.780;2024-03-02T08:43:30;12.60;90.20
9984;DHT22;16737;50.932;6.780;2024-03-02T08:45:57;12.60;90.10
9984;DHT22;16737;50.932;6.780;2024-03-02T08:48:24;12.70;90.10
9984;DHT22;16737;50.932;6.780;2024-03-02T08:50:51;12.70;90.20
9984;DHT22;16737;50.932;6.780;2024-03-02T08:53:20;12.80;90.30
9984;DHT22;16737;50.932;6.780;2024-03-02T08:55:47;12.80;90.20
9984;DHT22;16737;50.932;6.780;2024-03-02T08:58:14;12.80;90.10
9984;DHT22;16737;50.932;6.780;2024-03-02T09:00:41;12.90;90.10
9984;DHT22;16737;50.932;6.780;2024-03-02T09:03:09;13.00;90.10
9984;DHT22;16737;50.932;6.780;2024-03-02T09:05:36;13.00;90.10
9984;DHT22;16737;50.932;6.780;2024-03-02T09:08:04;13.10;90.20
9984;DHT22;16737;50.932;6.780;2024-03-02T09:10:34;13.10;90.00
9984;DHT22;16737;50.932;6.780;2024-03-02T09:13:01;13.20;89.90
9984;DHT22;16737;50.932;6.780;2024-03-02T09:15:28;13.30;89.70
9984;DHT22;16737;50.932;6.780;2024-03-02T09:17:55;13.30;89.70
9984;DHT22;16737;50.932;6.780;2024-03-02T09:20:22;13.40;89.60
9984;DHT22;16737;50.932;6.780;2024-03-02T09:22:49;13.40;89.30
9984;DHT22;16737;50.932;6.780;2024-03-02T09:25:16;13.40;89.40
9984;DHT22;16737;50.932;6.780;2024-03-02T09:27:44;13.40;89.10
9984;DHT22;16737;50.932;6.780;2024-03-02T09:30:12;13.50;89.40
9984;DHT22;16737;50.932;6.780;2024-03-02T09:32:40;13.60;89.30
9984;DHT22;16737;50.932;6.780;2024-03-02T09:35:08;13.60;89.20
9984;DHT22;16737;50.932;6.780;2024-03-02T09:37:35;13.70;89.00
9984;DHT22;16737;50.932;6.780;2024-03-02T09:40:03;13.70;88.70
9984;DHT22;16737;50.932;6.780;2024-03-02T09:42:32;13.70;88.20
9984;DHT22;16737;50.932;6.780;2024-03-02T09:45:00;13.80;88.20
9984;DHT22;16737;50.932;6.780;2024-03-02T09:47:28;13.80;88.10
9984;DHT22;16737;50.932;6.780;2024-03-02T09:49:55;13.80;88.20
9984;DHT22;16737;50.932;6.780;2024-03-02T09:52:22;13.80;88.30
9984;DHT22;16737;50.932;6.780;2024-03-02T09:54:49;13.80;88.60
9984;DHT22;16737;50.932;6.780;2024-03-02T09:57:16;13.90;88.50
9984;DHT22;16737;50.932;6.780;2024-03-02T09:59:44;13.90;88.20
9984;DHT22;16737;50.932;6.780;2024-03-02T10:02:12;14.00;88.60
9984;DHT22;16737;50.932;6.780;2024-03-02T10:04:39;14.10;88.30
9984;DHT22;16737;50.932;6.780;2024-03-02T10:07:10;14.10;88.00
9984;DHT22;16737;50.932;6.780;2024-03-02T10:09:39;14.20;88.00
9984;DHT22;16737;50.932;6.780;2024-03-02T10:12:07;14.30;88.50
9984;DHT22;16737;50.932;6.780;2024-03-02T10:14:37;14.40;88.50
9984;DHT22;16737;50.932;6.780;2024-03-02T10:17:05;14.50;88.10
9984;DHT22;16737;50.932;6.780;2024-03-02T10:19:34;14.60;88.50
9984;DHT22;16737;50.932;6.780;2024-03-02T10:22:03;14.70;88.40
9984;DHT22;16737;50.932;6.780;2024-03-02T10:24:41;14.70;88.20
9984;DHT22;16737;50.932;6.780;2024-03-02T10:27:15;14.80;87.10
9984;DHT22;16737;50.932;6.780;2024-03-02T10:29:47;14.90;87.40
9984;DHT22;16737;50.932;6.780;2024-03-02T10:32:15;15.00;87.60
9984;DHT22;16737;50.932;6.780;2024-03-02T10:34:45;15.10;86.90
9984;DHT22;16737;50.932;6.780;2024-03-02T10:37:14;15.10;86.30
9984;DHT22;16737;50.932;6.780;2024-03-02T10:39:42;15.20;86.70
9984;DHT22;16737;50.932;6.780;2024-03-02T10:42:09;15.20;86.90
9984;DHT22;16737;50.932;6.780;2024-03-02T10:44:38;15.30;86.10
9984;DHT22;16737;50.932;6.780;2024-03-02T10:47:06;15.30;85.20
9984;DHT22;16737;50.932;6.780;2024-03-02T10:49:35;15.30;85.10
9984;DHT22;16737;50.932;6.780;2024-03-02T10:52:06;15.30;84.60
9984;DHT22;16737;50.932;6.780;2024-03-02T10:54:34;15.30;84.20
9984;DHT22;16737;50.932;6.780;2024-03-02T10:57:05;15.40;84.70
9984;DHT22;16737;50.932;6.780;2024-03-02T10:59:36;15.40;85.00
9984;DHT22;16737;50.932;6.780;2024-03-02T11:02:05;15.40;84.40
9984;DHT22;16737;50.932;6.780;2024-03-02T11:04:37;15.50;84.70
9984;DHT22;16737;50.932;6.780;2024-03-02T11:07:07;15.50;84.70
9984;DHT22;16737;50.932;6.780;2024-03-02T11:09:40;15.60;84.50
9984;DHT22;16737;50.932;6.780;2024-03-02T11:12:12;15.60;83.80
9984;DHT22;16737;50.932;6.780;2024-03-02T11:14:45;15.70;84.20
9984;DHT22;16737;50.932;6.780;2024-03-02T11:17:14;15.70;84.50
9984;DHT22;16737;50.932;6.780;2024-03-02T11:19:43;15.80;84.00
9984;DHT22;16737;50.932;6.780;2024-03-02T11:22:13;15.80;84.30
9984;DHT22;16737;50.932;6.780;2024-03-02T11:24:48;15.90;84.10
9984;DHT22;16737;50.932;6.780;2024-03-02T11:30:56;16.00;82.70
9984;DHT22;16737;50.932;6.780;2024-03-02T11:33:24;16.10;81.20
9984;DHT22;16737;50.932;6.780;2024-03-02T11:35:57;16.10;83.20
9984;DHT22;16737;50.932;6.780;2024-03-02T11:38:35;16.10;83.40
9984;DHT22;16737;50.932;6.780;2024-03-02T11:41:05;16.10;82.50
9984;DHT22;16737;50.932;6.780;2024-03-02T11:43:37;16.20;83.60
9984;DHT22;16737;50.932;6.780;2024-03-02T11:46:06;16.20;83.30
9984;DHT22;16737;50.932;6.780;2024-03-02T11:48:35;16.30;83.00
9984;DHT22;16737;50.932;6.780;2024-03-02T11:51:03;16.30;82.90
9984;DHT22;16737;50.932;6.780;2024-03-02T11:53:31;16.40;82.80
9984;DHT22;16737;50.932;6.780;2024-03-02T11:56:01;16.40;82.50
9984;DHT22;16737;50.932;6.780;2024-03-02T11:58:31;16.40;81.40
9984;DHT22;16737;50.932;6.780;2024-03-02T12:01:03;16.40;82.40
9984;DHT22;16737;50.932;6.780;2024-03-02T12:03:32;16.40;82.40
9984;DHT22;16737;50.932;6.780;2024-03-02T12:06:01;16.40;82.10
9984;DHT22;16737;50.932;6.780;2024-03-02T12:08:29;16.40;81.90
9984;DHT22;16737;50.932;6.780;2024-03-02T12:10:57;16.40;82.30
9984;DHT22;16737;50.932;6.780;2024-03-02T12:13:26;16.40;82.00
9984;DHT22;16737;50.932;6.780;2024-03-02T12:15:54;16.40;81.90
9984;DHT22;16737;50.932;6.780;2024-03-02T12:18:22;16.30;81.60
9984;DHT22;16737;50.932;6.780;2024-03-02T12:20:50;16.30;82.10
9984;DHT22;16737;50.932;6.780;2024-03-02T12:23:22;16.30;82.00
9984;DHT22;16737;50.932;6.780;2024-03-02T12:25:49;16.30;82.10
9984;DHT22;16737;50.932;6.780;2024-03-02T12:28:16;16.30;81.60
9984;DHT22;16737;50.932;6.780;2024-03-02T12:30:46;16.30;81.40
9984;DHT22;16737;50.932;6.780;2024-03-02T12:33:14;16.30;81.80
9984;DHT22;16737;50.932;6.780;2024-03-02T12:35:41;16.30;80.80
9984;DHT22;16737;50.932;6.780;2024-03-02T12:38:08;16.20;80.90
9984;DHT22;16737;50.932;6.780;2024-03-02T12:40:36;16.10;80.90
9984;DHT22;16737;50.932;6.780;2024-03-02T12:43:05;16.10;80.90
9984;DHT22;16737;50.932;6.780;2024-03-02T12:45:33;16.10;81.50
9984;DHT22;16737;50.932;6.780;2024-03-02T12:48:03;16.10;81.70
9984;DHT22;16737;50.932;6.780;2024-03-02T12:50:31;16.00;81.60
9984;DHT22;16737;50.932;6.780;2024-03-02T12:52:59;16.00;81.70
9984;DHT22;16737;50.932;6.780;2024-03-02T12:55:26;16.00;81.70
9984;DHT22;16737;50.932;6.780;2024-03-02T12:57:54;15.90;81.80
9984;DHT22;16737;50.932;6.780;2024-03-02T13:00:22;15.90;82.10
9984;DHT22;16737;50.932;6.780;2024-03-02T13:02:49;15.90;82.40
9984;DHT22;16737;50.932;6.780;2024-03-02T13:05:18;15.90;83.10
9984;DHT22;16737;50.932;6.780;2024-03-02T13:07:47;15.90;82.30
9984;DHT22;16737;50.932;6.780;2024-03-02T13:10:14;15.80;82.30
9984;DHT22;16737;50.932;6.780;2024-03-02T13:12:41;15.80;82.40
9984;DHT22;16737;50.932;6.780;2024-03-02T13:15:09;15.80;82.80
9984;DHT22;16737;50.932;6.780;2024-03-02T13:17:36;15.90;83.10
9984;DHT22;16737;50.932;6.780;2024-03-02T13:20:04;15.90;82.80
9984;DHT22;16737;50.932;6.780;2024-03-02T13:22:37;15.90;82.90
9984;DHT22;16737;50.932;6.780;2024-03-02T13:25:05;15.90;82.80
9984;DHT22;16737;50.932;6.780;2024-03-02T13:27:34;15.90;82.60
9984;DHT22;16737;50.932;6.780;2024-03-02T13:30:02;15.90;82.50
9984;DHT22;16737;50.932;6.780;2024-03-02T13:32:31;15.90;82.60
9984;DHT22;16737;50.932;6.780;2024-03-02T13:34:58;15.90;82.40
9984;DHT22;16737;50.932;6.780;2024-03-02T13:37:25;15.80;82.50
9984;DHT22;16737;50.932;6.780;2024-03-02T13:39:54;15.80;82.60
9984;DHT22;16737;50.932;6.780;2024-03-02T13:42:21;15.80;82.60
9984;DHT22;16737;50.932;6.780;2024-03-02T13:44:48;15.70;82.70
9984;DHT22;16737;50.932;6.780;2024-03-02T13:47:17;15.80;83.10
9984;DHT22;16737;50.932;6.780;2024-03-02T13:49:44;15.70;83.10
9984;DHT22;16737;50.932;6.780;2024-03-02T13:52:12;15.70;82.80
9984;DHT22;16737;50.932;6.780;2024-03-02T13:54:40;15.70;83.00
9984;DHT22;16737;50.932;6.780;2024-03-02T13:57:10;15.70;83.20
9984;DHT22;16737;50.932;6.780;2024-03-02T13:59:38;15.70;83.30
9984;DHT22;16737;50.932;6.780;2024-03-02T14:02:06;15.70;83.20
9984;DHT22;16737;50.932;6.780;2024-03-02T14:04:34;15.70;83.20
9984;DHT22;16737;50.932;6.780;2024-03-02T14:07:02;15.70;83.00
9984;DHT22;16737;50.932;6.780;2024-03-02T14:09:32;15.70;82.90
9984;DHT22;16737;50.932;6.780;2024-03-02T14:11:59;15.70;83.00
9984;DHT22;16737;50.932;6.780;2024-03-02T14:14:28;15.70;83.00
9984;DHT22;16737;50.932;6.780;2024-03-02T14:16:55;15.70;83.00
9984;DHT22;16737;50.932;6.780;2024-03-02T14:19:25;15.80;83.30
9984;DHT22;16737;50.932;6.780;2024-03-02T14:21:52;15.80;83.40
9984;DHT22;16737;50.932;6.780;2024-03-02T14:24:19;15.80;83.40
9984;DHT22;16737;50.932;6.780;2024-03-02T14:26:49;15.80;83.10
9984;DHT22;16737;50.932;6.780;2024-03-02T14:29:16;15.80;83.00
9984;DHT22;16737;50.932;6.780;2024-03-02T14:31:45;15.90;83.40
9984;DHT22;16737;50.932;6.780;2024-03-02T14:34:13;15.90;83.10
9984;DHT22;16737;50.932;6.780;2024-03-02T14:36:41;15.90;83.10
9984;DHT22;16737;50.932;6.780;2024-03-02T14:39:09;15.90;83.20
9984;DHT22;16737;50.932;6.780;2024-03-02T14:41:36;15.90;83.00
9984;DHT22;16737;50.932;6.780;2024-03-02T14:44:03;16.00;83.00
9984;DHT22;16737;50.932;6.780;2024-03-02T14:46:30;16.00;83.00
9984;DHT22;16737;50.932;6.780;2024-03-02T14:48:59;16.00;82.90
9984;DHT22;16737;50.932;6.780;2024-03-02T14:51:26;16.00;82.80
9984;DHT22;16737;50.932;6.780;2024-03-02T14:53:55;16.00;82.30
9984;DHT22;16737;50.932;6.780;2024-03-02T14:56:22;16.00;82.00
9984;DHT22;16737;50.932;6.780;2024-03-02T14:58:49;16.00;82.00
9984;DHT22;16737;50.932;6.780;2024-03-02T15:01:16;16.00;82.00
9984;DHT22;16737;50.932;6.780;2024-03-02T15:03:44;16.00;82.30
9984;DHT22;16737;50.932;6.780;2024-03-02T15:06:12;16.10;82.00
9984;DHT22;16737;50.932;6.780;2024-03-02T15:08:39;16.10;82.00
9984;DHT22;16737;50.932;6.780;2024-03-02T15:11:07;16.10;81.70
9984;DHT22;16737;50.932;6.780;2024-03-02T15:13:35;16.10;81.60
9984;DHT22;16737;50.932;6.780;2024-03-02T15:16:03;16.20;82.00
9984;DHT22;16737;50.932;6.780;2024-03-02T15:18:30;16.20;82.10
9984;DHT22;16737;50.932;6.780;2024-03-02T15:20:57;16.30;82.00
9984;DHT22;16737;50.932;6.780;2024-03-02T15:23:26;16.30;82.10
9984;DHT22;16737;50.932;6.780;2024-03-02T15:25:55;16.40;82.00
9984;DHT22;16737;50.932;6.780;2024-03-02T15:28:22;16.40;81.80
9984;DHT22;16737;50.932;6.780;2024-03-02T15:30:49;16.40;81.20
9984;DHT22;16737;50.932;6.780;2024-03-02T15:33:17;16.40;80.70
9984;DHT22;16737;50.932;6.780;2024-03-02T15:35:44;16.40;80.70
9984;DHT22;16737;50.932;6.780;2024-03-02T15:38:11;16.40;80.60
9984;DHT22;16737;50.932;6.780;2024-03-02T15:40:41;16.40;80.40
9984;DHT22;16737;50.932;6.780;2024-03-02T15:43:08;16.40;80.20
9984;DHT22;16737;50.932;6.780;2024-03-02T15:45:35;16.30;80.20
9984;DHT22;16737;50.932;6.780;2024-03-02T15:48:03;16.30;80.10
9984;DHT22;16737;50.932;6.780;2024-03-02T15:50:30;16.30;80.30
9984;DHT22;16737;50.932;6.780;2024-03-02T15:52:58;16.30;80.50
9984;DHT22;16737;50.932;6.780;2024-03-02T15:55:29;16.30;80.40